TFM - Tactical Decision Aid (Experimental) INFO Settings
ID: Runway Winds: CIG/VIS Threshold: METAR Board: Map:

KCLT - Charlotte-Douglas Intl

Updated at: 1955 UTC 15 Dec 2017
Latest TAF at: 1951 UTC 15 Dec 2017

TAF Board

Time1952Z15/20Z15/21Z15/22Z15/23Z16/00Z16/01Z16/02Z16/03Z16/04Z16/05Z16/06Z16/07Z16/08Z
TypeOBSPRVLPRVLPRVLPRVLPRVLPRVLPRVLPRVLPRVLPRVLPRVLPRVLPRVL
VIS10>6>6>6>6>6>6>6>6>6>6>6>6>6
CIG250--------------------------
CoverOVCSCTSCTSCTSCTFEWFEWFEWFEWFEWFEWFEWFEWFEW
FltCatVFRVFRVFRVFRVFRVFRVFRVFRVFRVFRVFRVFRVFRVFR
WX----------------------------
WDir280300300300300330330330330330330330330330
WSpd57777222222222
WGst----------------------------
TAF
KCLT 151951Z 1520/1624 30007KT P6SM SCT250
  FM160000 33002KT P6SM FEW250
  FM161300 22005KT P6SM FEW250


METAR
KCLT 151952Z 28005KT 10SM SCT180 OVC250 08/M02 A2997 RMK AO2 PRESRR SLP149 T00781022
KCLT 151852Z 30003KT 10SM SCT160 BKN200 OVC250 08/M02 A2994 RMK AO2 SLP138 T00831022

TAF/METAR Board Legend

Potential Impact
  None Marginal Slight Moderate High
Visibility (sm) >5 3≤X≤5 1≤X<3 0.5≤X<1 <0.5
Ceiling (100 ft) >30 10≤X≤30 4≤X<10 2≤X<4 <2
Wind Speed (kt) <10 10≤X<20 20≤X<30 ≥30
Wind Gust (kt) <15 15≤X<25 25≤X<35 ≥35
Weather No Wx Reported VCTS -TS,-FZRA TS,FZRA +TS,+FZRA